sensor_id;sensor_type;location;lat;lon;timestamp;P1;durP1;ratioP1;P2;durP2;ratioP2
5630;SDS011;2837;50.990;7.124;2023-02-21T06:01:20;167.77;;;13.60;;
5630;SDS011;2837;50.990;7.124;2023-02-21T06:03:46;170.67;;;14.47;;
5630;SDS011;2837;50.990;7.124;2023-02-21T06:06:13;172.20;;;14.57;;
5630;SDS011;2837;50.990;7.124;2023-02-21T06:08:47;173.40;;;15.00;;
5630;SDS011;2837;50.990;7.124;2023-02-21T06:11:14;170.23;;;13.87;;
5630;SDS011;2837;50.990;7.124;2023-02-21T06:13:45;166.10;;;12.77;;
5630;SDS011;2837;50.990;7.124;2023-02-21T06:16:15;165.63;;;13.40;;
5630;SDS011;2837;50.990;7.124;2023-02-21T06:18:40;169.47;;;14.97;;
5630;SDS011;2837;50.990;7.124;2023-02-21T06:21:06;166.70;;;13.40;;
5630;SDS011;2837;50.990;7.124;2023-02-21T06:23:31;169.60;;;14.13;;
5630;SDS011;2837;50.990;7.124;2023-02-21T06:25:57;170.27;;;13.50;;
5630;SDS011;2837;50.990;7.124;2023-02-21T06:28:26;168.67;;;14.40;;
5630;SDS011;2837;50.990;7.124;2023-02-21T06:30:55;166.77;;;14.57;;
5630;SDS011;2837;50.990;7.124;2023-02-21T06:33:21;168.60;;;14.30;;
5630;SDS011;2837;50.990;7.124;2023-02-21T06:35:47;166.53;;;13.30;;
5630;SDS011;2837;50.990;7.124;2023-02-21T06:38:13;168.93;;;14.37;;
5630;SDS011;2837;50.990;7.124;2023-02-21T06:40:38;169.97;;;14.53;;
5630;SDS011;2837;50.990;7.124;2023-02-21T06:43:04;169.30;;;14.17;;
5630;SDS011;2837;50.990;7.124;2023-02-21T06:45:30;164.67;;;12.90;;
5630;SDS011;2837;50.990;7.124;2023-02-21T06:47:55;166.27;;;13.77;;
5630;SDS011;2837;50.990;7.124;2023-02-21T06:50:21;166.70;;;14.40;;
5630;SDS011;2837;50.990;7.124;2023-02-21T06:52:46;167.57;;;13.20;;
5630;SDS011;2837;50.990;7.124;2023-02-21T06:55:12;167.27;;;14.00;;
5630;SDS011;2837;50.990;7.124;2023-02-21T06:57:37;165.67;;;12.30;;
5630;SDS011;2837;50.990;7.124;2023-02-21T07:00:04;166.47;;;13.33;;
5630;SDS011;2837;50.990;7.124;2023-02-21T07:02:30;170.97;;;14.20;;
5630;SDS011;2837;50.990;7.124;2023-02-21T07:04:55;165.67;;;12.80;;
5630;SDS011;2837;50.990;7.124;2023-02-21T07:07:21;168.50;;;13.73;;
5630;SDS011;2837;50.990;7.124;2023-02-21T07:09:47;167.03;;;13.47;;
5630;SDS011;2837;50.990;7.124;2023-02-21T07:12:12;165.57;;;13.40;;
5630;SDS011;2837;50.990;7.124;2023-02-21T07:14:38;164.47;;;13.73;;
5630;SDS011;2837;50.990;7.124;2023-02-21T07:17:03;165.10;;;12.73;;
5630;SDS011;2837;50.990;7.124;2023-02-21T07:19:29;165.13;;;13.00;;
5630;SDS011;2837;50.990;7.124;2023-02-21T07:21:55;169.33;;;14.10;;
5630;SDS011;2837;50.990;7.124;2023-02-21T07:24:20;165.87;;;13.43;;
5630;SDS011;2837;50.990;7.124;2023-02-21T07:26:46;173.97;;;14.93;;
5630;SDS011;2837;50.990;7.124;2023-02-21T07:29:12;169.57;;;13.70;;
5630;SDS011;2837;50.990;7.124;2023-02-21T07:31:37;167.00;;;13.77;;
5630;SDS011;2837;50.990;7.124;2023-02-21T07:34:03;170.90;;;14.93;;
5630;SDS011;2837;50.990;7.124;2023-02-21T07:36:28;172.77;;;14.60;;
5630;SDS011;2837;50.990;7.124;2023-02-21T07:38:55;168.87;;;13.83;;
5630;SDS011;2837;50.990;7.124;2023-02-21T07:41:21;167.17;;;14.13;;
5630;SDS011;2837;50.990;7.124;2023-02-21T07:43:46;167.23;;;14.27;;
5630;SDS011;2837;50.990;7.124;2023-02-21T07:46:12;169.03;;;14.20;;
5630;SDS011;2837;50.990;7.124;2023-02-21T07:48:39;171.93;;;16.53;;
5630;SDS011;2837;50.990;7.124;2023-02-21T07:51:05;167.20;;;13.83;;
5630;SDS011;2837;50.990;7.124;2023-02-21T07:53:31;169.00;;;13.83;;
5630;SDS011;2837;50.990;7.124;2023-02-21T07:55:57;165.97;;;14.20;;
5630;SDS011;2837;50.990;7.124;2023-02-21T07:58:22;170.47;;;14.53;;
5630;SDS011;2837;50.990;7.124;2023-02-21T08:00:49;178.27;;;14.47;;
5630;SDS011;2837;50.990;7.124;2023-02-21T08:03:15;171.27;;;15.40;;
5630;SDS011;2837;50.990;7.124;2023-02-21T08:05:40;165.13;;;13.73;;
5630;SDS011;2837;50.990;7.124;2023-02-21T08:08:07;164.73;;;13.70;;
5630;SDS011;2837;50.990;7.124;2023-02-21T08:10:33;168.40;;;14.10;;
5630;SDS011;2837;50.990;7.124;2023-02-21T08:12:59;170.77;;;14.20;;
5630;SDS011;2837;50.990;7.124;2023-02-21T08:15:24;168.60;;;14.77;;
5630;SDS011;2837;50.990;7.124;2023-02-21T08:17:50;172.60;;;16.03;;
5630;SDS011;2837;50.990;7.124;2023-02-21T08:20:16;168.77;;;14.60;;
5630;SDS011;2837;50.990;7.124;2023-02-21T08:22:43;172.17;;;15.53;;
5630;SDS011;2837;50.990;7.124;2023-02-21T08:25:12;167.23;;;14.40;;
5630;SDS011;2837;50.990;7.124;2023-02-21T08:27:42;172.27;;;15.00;;
5630;SDS011;2837;50.990;7.124;2023-02-21T08:30:09;168.37;;;14.20;;
5630;SDS011;2837;50.990;7.124;2023-02-21T08:32:38;169.10;;;15.47;;
5630;SDS011;2837;50.990;7.124;2023-02-21T08:35:04;168.87;;;13.87;;
5630;SDS011;2837;50.990;7.124;2023-02-21T08:37:30;168.47;;;15.10;;
5630;SDS011;2837;50.990;7.124;2023-02-21T08:39:57;173.03;;;14.97;;
5630;SDS011;2837;50.990;7.124;2023-02-21T08:42:24;167.47;;;14.47;;
5630;SDS011;2837;50.990;7.124;2023-02-21T08:44:50;170.87;;;15.20;;
5630;SDS011;2837;50.990;7.124;2023-02-21T08:47:16;174.87;;;16.40;;
5630;SDS011;2837;50.990;7.124;2023-02-21T08:49:45;180.50;;;17.77;;
5630;SDS011;2837;50.990;7.124;2023-02-21T08:52:12;182.20;;;17.43;;
5630;SDS011;2837;50.990;7.124;2023-02-21T08:54:40;179.07;;;16.10;;
5630;SDS011;2837;50.990;7.124;2023-02-21T08:57:06;178.37;;;17.50;;
5630;SDS011;2837;50.990;7.124;2023-02-21T08:59:31;179.37;;;17.43;;
5630;SDS011;2837;50.990;7.124;2023-02-21T09:01:59;180.97;;;17.80;;
5630;SDS011;2837;50.990;7.124;2023-02-21T09:04:25;190.87;;;19.37;;
5630;SDS011;2837;50.990;7.124;2023-02-21T09:06:52;180.97;;;17.50;;
5630;SDS011;2837;50.990;7.124;2023-02-21T09:09:18;184.20;;;17.37;;
5630;SDS011;2837;50.990;7.124;2023-02-21T09:11:44;178.93;;;17.47;;
5630;SDS011;2837;50.990;7.124;2023-02-21T09:14:12;186.40;;;18.40;;
5630;SDS011;2837;50.990;7.124;2023-02-21T09:16:39;180.90;;;18.67;;
5630;SDS011;2837;50.990;7.124;2023-02-21T09:19:05;186.67;;;18.60;;
5630;SDS011;2837;50.990;7.124;2023-02-21T09:21:32;178.47;;;18.20;;
5630;SDS011;2837;50.990;7.124;2023-02-21T09:23:57;180.57;;;18.90;;
5630;SDS011;2837;50.990;7.124;2023-02-21T09:26:24;179.30;;;17.57;;
5630;SDS011;2837;50.990;7.124;2023-02-21T09:28:50;173.17;;;16.20;;
5630;SDS011;2837;50.990;7.124;2023-02-21T09:31:16;177.47;;;17.50;;
5630;SDS011;2837;50.990;7.124;2023-02-21T09:33:42;188.00;;;20.47;;
5630;SDS011;2837;50.990;7.124;2023-02-21T09:36:09;181.87;;;17.97;;
5630;SDS011;2837;50.990;7.124;2023-02-21T09:38:35;181.70;;;18.13;;
5630;SDS011;2837;50.990;7.124;2023-02-21T09:41:06;182.67;;;18.60;;
5630;SDS011;2837;50.990;7.124;2023-02-21T09:43:35;187.07;;;19.80;;
5630;SDS011;2837;50.990;7.124;2023-02-21T09:46:09;194.93;;;21.17;;
5630;SDS011;2837;50.990;7.124;2023-02-21T09:48:38;177.73;;;18.30;;
5630;SDS011;2837;50.990;7.124;2023-02-21T09:51:06;180.57;;;19.40;;
5630;SDS011;2837;50.990;7.124;2023-02-21T09:53:36;188.80;;;19.53;;
5630;SDS011;2837;50.990;7.124;2023-02-21T09:56:11;177.37;;;17.53;;
5630;SDS011;2837;50.990;7.124;2023-02-21T09:58:40;178.87;;;18.27;;
5630;SDS011;2837;50.990;7.124;2023-02-21T10:01:55;180.83;;;19.13;;
5630;SDS011;2837;50.990;7.124;2023-02-21T10:04:20;181.93;;;19.80;;
5630;SDS011;2837;50.990;7.124;2023-02-21T10:07:17;179.43;;;17.73;;
5630;SDS011;2837;50.990;7.124;2023-02-21T10:10:18;185.20;;;19.53;;
5630;SDS011;2837;50.990;7.124;2023-02-21T10:13:10;177.97;;;17.30;;
5630;SDS011;2837;50.990;7.124;2023-02-21T10:21:16;177.47;;;17.17;;
5630;SDS011;2837;50.990;7.124;2023-02-21T10:23:49;177.70;;;16.37;;
5630;SDS011;2837;50.990;7.124;2023-02-21T10:26:19;183.57;;;19.47;;
5630;SDS011;2837;50.990;7.124;2023-02-21T10:28:52;177.80;;;16.60;;
5630;SDS011;2837;50.990;7.124;2023-02-21T10:31:20;179.00;;;18.70;;
5630;SDS011;2837;50.990;7.124;2023-02-21T10:33:53;180.13;;;17.33;;
5630;SDS011;2837;50.990;7.124;2023-02-21T10:36:20;177.63;;;17.40;;
5630;SDS011;2837;50.990;7.124;2023-02-21T10:39:33;180.20;;;17.90;;
5630;SDS011;2837;50.990;7.124;2023-02-21T10:41:34;183.30;;;18.07;;
5630;SDS011;2837;50.990;7.124;2023-02-21T10:44:06;178.57;;;18.10;;
5630;SDS011;2837;50.990;7.124;2023-02-21T10:46:54;181.07;;;19.07;;
5630;SDS011;2837;50.990;7.124;2023-02-21T10:49:27;178.03;;;17.57;;
5630;SDS011;2837;50.990;7.124;2023-02-21T10:52:02;184.77;;;19.00;;
5630;SDS011;2837;50.990;7.124;2023-02-21T10:54:41;187.70;;;18.23;;
5630;SDS011;2837;50.990;7.124;2023-02-21T10:57:23;177.60;;;17.50;;
5630;SDS011;2837;50.990;7.124;2023-02-21T10:59:49;178.47;;;17.30;;
5630;SDS011;2837;50.990;7.124;2023-02-21T11:02:48;179.10;;;17.77;;
5630;SDS011;2837;50.990;7.124;2023-02-21T11:07:34;181.43;;;18.43;;
5630;SDS011;2837;50.990;7.124;2023-02-21T11:10:00;178.87;;;18.00;;
5630;SDS011;2837;50.990;7.124;2023-02-21T11:12:28;179.87;;;17.93;;
5630;SDS011;2837;50.990;7.124;2023-02-21T11:17:21;180.77;;;19.17;;
5630;SDS011;2837;50.990;7.124;2023-02-21T11:19:53;178.83;;;17.57;;
5630;SDS011;2837;50.990;7.124;2023-02-21T11:24:52;179.37;;;18.17;;
5630;SDS011;2837;50.990;7.124;2023-02-21T11:27:24;178.23;;;16.83;;
5630;SDS011;2837;50.990;7.124;2023-02-21T11:29:52;182.47;;;19.23;;
5630;SDS011;2837;50.990;7.124;2023-02-21T11:32:23;178.33;;;18.30;;
5630;SDS011;2837;50.990;7.124;2023-02-21T11:34:58;181.53;;;18.43;;
5630;SDS011;2837;50.990;7.124;2023-02-21T11:37:29;179.87;;;17.30;;
5630;SDS011;2837;50.990;7.124;2023-02-21T11:39:56;178.27;;;18.47;;
5630;SDS011;2837;50.990;7.124;2023-02-21T11:42:26;180.63;;;18.20;;
5630;SDS011;2837;50.990;7.124;2023-02-21T11:45:03;175.77;;;17.73;;
5630;SDS011;2837;50.990;7.124;2023-02-21T11:47:45;174.77;;;17.40;;
5630;SDS011;2837;50.990;7.124;2023-02-21T11:50:26;176.20;;;17.20;;
5630;SDS011;2837;50.990;7.124;2023-02-21T11:55:37;171.50;;;16.93;;
5630;SDS011;2837;50.990;7.124;2023-02-21T11:58:25;177.20;;;16.93;;
5630;SDS011;2837;50.990;7.124;2023-02-21T12:01:13;179.20;;;18.17;;
5630;SDS011;2837;50.990;7.124;2023-02-21T12:09:09;176.43;;;17.70;;
5630;SDS011;2837;50.990;7.124;2023-02-21T12:14:18;178.63;;;18.37;;
5630;SDS011;2837;50.990;7.124;2023-02-21T12:22:50;180.77;;;18.17;;
5630;SDS011;2837;50.990;7.124;2023-02-21T12:28:31;173.37;;;18.33;;
5630;SDS011;2837;50.990;7.124;2023-02-21T12:36:49;175.73;;;18.03;;
5630;SDS011;2837;50.990;7.124;2023-02-21T12:39:27;178.80;;;18.90;;
5630;SDS011;2837;50.990;7.124;2023-02-21T12:45:06;171.37;;;17.60;;
5630;SDS011;2837;50.990;7.124;2023-02-21T12:50:30;175.53;;;18.40;;
5630;SDS011;2837;50.990;7.124;2023-02-21T12:55:34;173.97;;;18.27;;
5630;SDS011;2837;50.990;7.124;2023-02-21T13:06:31;182.77;;;19.07;;
5630;SDS011;2837;50.990;7.124;2023-02-21T13:12:02;178.63;;;18.93;;
5630;SDS011;2837;50.990;7.124;2023-02-21T13:14:51;184.03;;;18.97;;
5630;SDS011;2837;50.990;7.124;2023-02-21T13:17:20;178.90;;;19.37;;
5630;SDS011;2837;50.990;7.124;2023-02-21T13:19:47;178.93;;;18.20;;
5630;SDS011;2837;50.990;7.124;2023-02-21T13:28:43;183.03;;;19.67;;
5630;SDS011;2837;50.990;7.124;2023-02-21T13:31:17;178.77;;;17.87;;
5630;SDS011;2837;50.990;7.124;2023-02-21T13:33:55;178.90;;;19.60;;
5630;SDS011;2837;50.990;7.124;2023-02-21T13:41:26;177.00;;;19.07;;
5630;SDS011;2837;50.990;7.124;2023-02-21T13:43:53;178.53;;;18.63;;
5630;SDS011;2837;50.990;7.124;2023-02-21T13:57:42;177.07;;;18.90;;
5630;SDS011;2837;50.990;7.124;2023-02-21T14:00:58;177.43;;;19.33;;
5630;SDS011;2837;50.990;7.124;2023-02-21T14:08:31;177.60;;;19.00;;
5630;SDS011;2837;50.990;7.124;2023-02-21T14:24:05;180.93;;;17.63;;
5630;SDS011;2837;50.990;7.124;2023-02-21T14:31:55;178.60;;;17.47;;
5630;SDS011;2837;50.990;7.124;2023-02-21T14:37:29;181.97;;;18.97;;
5630;SDS011;2837;50.990;7.124;2023-02-21T14:45:36;178.67;;;17.70;;
5630;SDS011;2837;50.990;7.124;2023-02-21T14:56:23;174.70;;;16.47;;
5630;SDS011;2837;50.990;7.124;2023-02-21T15:05:06;177.50;;;17.77;;
5630;SDS011;2837;50.990;7.124;2023-02-21T15:13:23;176.20;;;17.60;;
5630;SDS011;2837;50.990;7.124;2023-02-21T15:21:04;179.27;;;17.80;;
5630;SDS011;2837;50.990;7.124;2023-02-21T15:23:30;180.97;;;18.27;;
5630;SDS011;2837;50.990;7.124;2023-02-21T15:25:58;175.83;;;17.47;;
5630;SDS011;2837;50.990;7.124;2023-02-21T15:28:30;179.33;;;17.47;;
5630;SDS011;2837;50.990;7.124;2023-02-21T15:31:01;176.13;;;17.90;;
5630;SDS011;2837;50.990;7.124;2023-02-21T15:33:33;177.80;;;17.87;;
5630;SDS011;2837;50.990;7.124;2023-02-21T15:36:01;172.50;;;18.10;;
5630;SDS011;2837;50.990;7.124;2023-02-21T15:41:04;175.83;;;17.00;;
5630;SDS011;2837;50.990;7.124;2023-02-21T15:43:35;181.10;;;17.67;;
5630;SDS011;2837;50.990;7.124;2023-02-21T15:46:11;174.60;;;16.80;;
5630;SDS011;2837;50.990;7.124;2023-02-21T15:48:42;180.27;;;17.97;;
5630;SDS011;2837;50.990;7.124;2023-02-21T15:51:08;176.20;;;17.60;;
5630;SDS011;2837;50.990;7.124;2023-02-21T15:53:34;177.07;;;19.20;;
5630;SDS011;2837;50.990;7.124;2023-02-21T15:56:17;176.70;;;17.70;;
5630;SDS011;2837;50.990;7.124;2023-02-21T16:04:38;186.67;;;17.70;;
5630;SDS011;2837;50.990;7.124;2023-02-21T16:07:06;180.23;;;18.50;;
5630;SDS011;2837;50.990;7.124;2023-02-21T16:10:08;171.17;;;15.30;;
5630;SDS011;2837;50.990;7.124;2023-02-21T16:12:39;181.80;;;18.50;;
5630;SDS011;2837;50.990;7.124;2023-02-21T16:18:00;174.67;;;17.63;;
5630;SDS011;2837;50.990;7.124;2023-02-21T16:20:32;175.60;;;18.17;;
5630;SDS011;2837;50.990;7.124;2023-02-21T16:23:22;177.40;;;18.30;;
5630;SDS011;2837;50.990;7.124;2023-02-21T16:25:57;182.13;;;19.53;;
5630;SDS011;2837;50.990;7.124;2023-02-21T16:28:37;179.07;;;18.50;;
5630;SDS011;2837;50.990;7.124;2023-02-21T16:31:05;177.80;;;18.40;;
5630;SDS011;2837;50.990;7.124;2023-02-21T16:33:32;183.67;;;20.40;;
5630;SDS011;2837;50.990;7.124;2023-02-21T16:35:59;176.43;;;16.90;;
5630;SDS011;2837;50.990;7.124;2023-02-21T16:38:29;177.47;;;18.20;;
5630;SDS011;2837;50.990;7.124;2023-02-21T16:40:54;177.13;;;18.50;;
5630;SDS011;2837;50.990;7.124;2023-02-21T16:43:21;179.70;;;18.67;;
5630;SDS011;2837;50.990;7.124;2023-02-21T16:45:52;180.10;;;17.20;;
5630;SDS011;2837;50.990;7.124;2023-02-21T16:48:21;173.67;;;17.67;;
5630;SDS011;2837;50.990;7.124;2023-02-21T16:50:50;178.07;;;18.10;;
5630;SDS011;2837;50.990;7.124;2023-02-21T16:53:16;173.87;;;16.77;;
5630;SDS011;2837;50.990;7.124;2023-02-21T16:55:43;175.17;;;17.23;;
5630;SDS011;2837;50.990;7.124;2023-02-21T16:58:17;176.73;;;17.20;;
5630;SDS011;2837;50.990;7.124;2023-02-21T17:00:51;175.10;;;16.90;;
5630;SDS011;2837;50.990;7.124;2023-02-21T17:03:19;179.07;;;19.17;;
5630;SDS011;2837;50.990;7.124;2023-02-21T17:05:45;182.63;;;18.20;;
5630;SDS011;2837;50.990;7.124;2023-02-21T17:08:11;176.80;;;17.77;;
5630;SDS011;2837;50.990;7.124;2023-02-21T17:10:37;179.83;;;18.13;;
5630;SDS011;2837;50.990;7.124;2023-02-21T17:13:02;182.37;;;17.77;;
5630;SDS011;2837;50.990;7.124;2023-02-21T17:15:28;177.43;;;18.67;;
5630;SDS011;2837;50.990;7.124;2023-02-21T17:17:56;182.20;;;17.90;;
5630;SDS011;2837;50.990;7.124;2023-02-21T17:20:22;178.67;;;19.10;;
5630;SDS011;2837;50.990;7.124;2023-02-21T17:22:48;180.57;;;19.60;;
5630;SDS011;2837;50.990;7.124;2023-02-21T17:25:15;181.57;;;18.60;;
5630;SDS011;2837;50.990;7.124;2023-02-21T17:27:41;180.40;;;18.57;;
5630;SDS011;2837;50.990;7.124;2023-02-21T17:30:07;176.43;;;16.80;;
5630;SDS011;2837;50.990;7.124;2023-02-21T17:32:33;183.07;;;17.83;;
5630;SDS011;2837;50.990;7.124;2023-02-21T17:34:59;189.30;;;19.07;;
5630;SDS011;2837;50.990;7.124;2023-02-21T17:37:25;182.43;;;17.90;;
5630;SDS011;2837;50.990;7.124;2023-02-21T17:39:54;183.87;;;18.67;;
5630;SDS011;2837;50.990;7.124;2023-02-21T17:42:20;181.47;;;19.17;;
5630;SDS011;2837;50.990;7.124;2023-02-21T17:44:46;181.67;;;18.77;;
5630;SDS011;2837;50.990;7.124;2023-02-21T17:47:14;186.47;;;18.70;;
5630;SDS011;2837;50.990;7.124;2023-02-21T17:49:41;180.40;;;19.10;;
5630;SDS011;2837;50.990;7.124;2023-02-21T17:52:07;185.73;;;19.60;;
5630;SDS011;2837;50.990;7.124;2023-02-21T17:54:32;182.87;;;19.67;;
5630;SDS011;2837;50.990;7.124;2023-02-21T17:56:58;182.43;;;19.97;;
5630;SDS011;2837;50.990;7.124;2023-02-21T17:59:23;179.83;;;17.93;;
5630;SDS011;2837;50.990;7.124;2023-02-21T18:01:51;185.77;;;18.53;;
5630;SDS011;2837;50.990;7.124;2023-02-21T18:04:19;181.87;;;18.87;;
5630;SDS011;2837;50.990;7.124;2023-02-21T18:06:44;178.40;;;18.23;;
5630;SDS011;2837;50.990;7.124;2023-02-21T18:09:10;192.70;;;18.67;;
5630;SDS011;2837;50.990;7.124;2023-02-21T18:11:35;186.23;;;19.47;;
5630;SDS011;2837;50.990;7.124;2023-02-21T18:16:27;190.30;;;19.90;;
5630;SDS011;2837;50.990;7.124;2023-02-21T18:18:53;184.97;;;19.87;;
5630;SDS011;2837;50.990;7.124;2023-02-21T18:21:18;183.57;;;18.73;;
5630;SDS011;2837;50.990;7.124;2023-02-21T18:23:47;183.37;;;19.27;;
5630;SDS011;2837;50.990;7.124;2023-02-21T18:26:13;180.40;;;17.47;;
5630;SDS011;2837;50.990;7.124;2023-02-21T18:28:40;176.03;;;17.47;;
5630;SDS011;2837;50.990;7.124;2023-02-21T18:31:05;183.70;;;19.50;;
5630;SDS011;2837;50.990;7.124;2023-02-21T18:33:31;180.30;;;17.77;;
5630;SDS011;2837;50.990;7.124;2023-02-21T18:35:57;183.87;;;21.20;;
5630;SDS011;2837;50.990;7.124;2023-02-21T18:38:23;180.17;;;18.43;;
5630;SDS011;2837;50.990;7.124;2023-02-21T18:40:50;180.93;;;19.00;;
5630;SDS011;2837;50.990;7.124;2023-02-21T18:43:19;175.20;;;17.57;;
5630;SDS011;2837;50.990;7.124;2023-02-21T18:45:46;180.57;;;17.53;;
5630;SDS011;2837;50.990;7.124;2023-02-21T18:48:13;181.83;;;19.60;;
5630;SDS011;2837;50.990;7.124;2023-02-21T18:50:39;178.07;;;18.27;;
5630;SDS011;2837;50.990;7.124;2023-02-21T18:53:05;189.77;;;22.90;;
5630;SDS011;2837;50.990;7.124;2023-02-21T18:55:31;179.97;;;18.90;;
5630;SDS011;2837;50.990;7.124;2023-02-21T18:57:56;192.10;;;23.53;;
5630;SDS011;2837;50.990;7.124;2023-02-21T19:00:22;187.90;;;21.70;;
5630;SDS011;2837;50.990;7.124;2023-02-21T19:02:48;182.20;;;19.60;;
5630;SDS011;2837;50.990;7.124;2023-02-21T19:05:15;177.07;;;18.13;;
5630;SDS011;2837;50.990;7.124;2023-02-21T19:07:42;175.87;;;17.13;;
5630;SDS011;2837;50.990;7.124;2023-02-21T19:10:09;175.37;;;16.23;;
5630;SDS011;2837;50.990;7.124;2023-02-21T19:12:35;176.73;;;17.30;;
5630;SDS011;2837;50.990;7.124;2023-02-21T19:15:01;172.90;;;16.00;;
5630;SDS011;2837;50.990;7.124;2023-02-21T19:17:27;177.00;;;16.57;;
5630;SDS011;2837;50.990;7.124;2023-02-21T19:19:53;171.30;;;16.53;;
5630;SDS011;2837;50.990;7.124;2023-02-21T19:22:18;180.07;;;16.77;;
5630;SDS011;2837;50.990;7.124;2023-02-21T19:24:44;177.07;;;17.30;;
5630;SDS011;2837;50.990;7.124;2023-02-21T19:27:10;175.70;;;16.87;;
5630;SDS011;2837;50.990;7.124;2023-02-21T19:29:35;172.13;;;16.47;;
5630;SDS011;2837;50.990;7.124;2023-02-21T19:32:01;174.27;;;15.67;;
5630;SDS011;2837;50.990;7.124;2023-02-21T19:34:26;175.33;;;15.97;;
5630;SDS011;2837;50.990;7.124;2023-02-21T19:36:52;174.77;;;14.83;;
5630;SDS011;2837;50.990;7.124;2023-02-21T19:39:17;171.87;;;15.07;;
5630;SDS011;2837;50.990;7.124;2023-02-21T19:41:43;173.73;;;16.37;;
5630;SDS011;2837;50.990;7.124;2023-02-21T19:44:09;170.00;;;15.13;;
5630;SDS011;2837;50.990;7.124;2023-02-21T19:46:36;170.67;;;15.13;;
5630;SDS011;2837;50.990;7.124;2023-02-21T19:49:02;171.63;;;16.27;;
5630;SDS011;2837;50.990;7.124;2023-02-21T19:51:30;169.90;;;13.60;;
5630;SDS011;2837;50.990;7.124;2023-02-21T19:53:57;167.03;;;13.40;;
5630;SDS011;2837;50.990;7.124;2023-02-21T19:56:26;166.30;;;13.10;;
5630;SDS011;2837;50.990;7.124;2023-02-21T19:58:52;167.37;;;13.27;;
5630;SDS011;2837;50.990;7.124;2023-02-21T20:01:18;168.70;;;13.83;;
5630;SDS011;2837;50.990;7.124;2023-02-21T20:03:46;170.63;;;15.50;;
5630;SDS011;2837;50.990;7.124;2023-02-21T20:06:12;171.97;;;15.00;;
5630;SDS011;2837;50.990;7.124;2023-02-21T20:08:38;170.97;;;15.37;;
5630;SDS011;2837;50.990;7.124;2023-02-21T20:11:04;171.13;;;14.60;;
5630;SDS011;2837;50.990;7.124;2023-02-21T20:13:29;169.73;;;13.77;;
5630;SDS011;2837;50.990;7.124;2023-02-21T20:15:55;170.00;;;14.57;;
5630;SDS011;2837;50.990;7.124;2023-02-21T20:18:21;168.50;;;13.83;;
5630;SDS011;2837;50.990;7.124;2023-02-21T20:20:47;167.33;;;13.47;;
5630;SDS011;2837;50.990;7.124;2023-02-21T20:23:13;167.80;;;14.40;;
5630;SDS011;2837;50.990;7.124;2023-02-21T20:25:39;167.67;;;14.13;;
5630;SDS011;2837;50.990;7.124;2023-02-21T20:28:05;166.47;;;14.07;;
5630;SDS011;2837;50.990;7.124;2023-02-21T20:30:31;174.57;;;14.50;;
5630;SDS011;2837;50.990;7.124;2023-02-21T20:32:57;168.33;;;14.17;;
5630;SDS011;2837;50.990;7.124;2023-02-21T20:35:23;168.67;;;13.70;;
5630;SDS011;2837;50.990;7.124;2023-02-21T20:37:49;166.23;;;13.90;;
5630;SDS011;2837;50.990;7.124;2023-02-21T20:40:15;168.77;;;14.33;;
5630;SDS011;2837;50.990;7.124;2023-02-21T20:42:42;166.23;;;13.20;;
5630;SDS011;2837;50.990;7.124;2023-02-21T20:45:08;166.37;;;14.40;;
5630;SDS011;2837;50.990;7.124;2023-02-21T20:47:37;168.47;;;14.10;;
5630;SDS011;2837;50.990;7.124;2023-02-21T20:50:03;166.20;;;14.00;;
5630;SDS011;2837;50.990;7.124;2023-02-21T20:52:31;168.73;;;13.20;;
5630;SDS011;2837;50.990;7.124;2023-02-21T20:54:58;166.20;;;13.20;;
5630;SDS011;2837;50.990;7.124;2023-02-21T20:57:25;164.67;;;12.90;;
5630;SDS011;2837;50.990;7.124;2023-02-21T20:59:50;167.33;;;13.20;;
5630;SDS011;2837;50.990;7.124;2023-02-21T21:02:16;165.50;;;12.47;;
5630;SDS011;2837;50.990;7.124;2023-02-21T21:04:43;168.97;;;14.37;;
5630;SDS011;2837;50.990;7.124;2023-02-21T21:07:13;167.20;;;13.10;;
5630;SDS011;2837;50.990;7.124;2023-02-21T21:09:43;171.80;;;14.43;;
5630;SDS011;2837;50.990;7.124;2023-02-21T21:12:12;166.10;;;13.60;;
5630;SDS011;2837;50.990;7.124;2023-02-21T21:14:41;164.47;;;12.70;;
5630;SDS011;2837;50.990;7.124;2023-02-21T21:17:08;167.90;;;13.37;;
5630;SDS011;2837;50.990;7.124;2023-02-21T21:19:39;167.80;;;13.17;;
5630;SDS011;2837;50.990;7.124;2023-02-21T21:22:11;166.10;;;13.03;;
5630;SDS011;2837;50.990;7.124;2023-02-21T21:24:39;165.63;;;13.63;;
5630;SDS011;2837;50.990;7.124;2023-02-21T21:27:05;163.40;;;12.07;;
5630;SDS011;2837;50.990;7.124;2023-02-21T21:29:34;167.07;;;13.57;;
5630;SDS011;2837;50.990;7.124;2023-02-21T21:32:06;164.37;;;12.90;;
5630;SDS011;2837;50.990;7.124;2023-02-21T21:34:33;165.67;;;12.37;;
5630;SDS011;2837;50.990;7.124;2023-02-21T21:37:02;163.13;;;11.90;;
5630;SDS011;2837;50.990;7.124;2023-02-21T21:39:28;162.50;;;11.50;;
5630;SDS011;2837;50.990;7.124;2023-02-21T21:41:56;165.60;;;12.20;;
5630;SDS011;2837;50.990;7.124;2023-02-21T21:44:25;165.90;;;13.17;;
5630;SDS011;2837;50.990;7.124;2023-02-21T21:46:51;162.27;;;11.30;;
5630;SDS011;2837;50.990;7.124;2023-02-21T21:49:18;163.53;;;11.60;;
5630;SDS011;2837;50.990;7.124;2023-02-21T21:51:45;164.23;;;12.63;;
5630;SDS011;2837;50.990;7.124;2023-02-21T21:54:13;162.40;;;11.27;;
5630;SDS011;2837;50.990;7.124;2023-02-21T21:56:41;162.67;;;11.80;;
5630;SDS011;2837;50.990;7.124;2023-02-21T21:59:09;162.37;;;12.07;;
